Time;durP1;ratioP1;P1;durP2;ratioP2;P2;SDS_P1;SDS_P2;PMS_P1;PMS_P2;Temp;Humidity;BMP_temperature;BMP_pressure;BME280_temperature;BME280_humidity;BME280_pressure;Samples;Min_cycle;Max_cycle;Signal;HPM_P1;HPM_P2
2022/09/14 00:01:05;;;;;;;;;;;20.60;90.00;;;;;;6119041;23;20324;-82
2022/09/14 00:03:51;;;;;;;;;;;20.60;89.70;;;;;;6114801;23;19923;-82
2022/09/14 00:06:18;;;;;;;;;;;20.60;89.10;;;;;;6119087;23;20261;-83
2022/09/14 00:08:48;;;;;;;;;;;20.60;88.80;;;;;;6118198;23;19917;-82
2022/09/14 00:11:14;;;;;;;;;;;20.60;88.80;;;;;;6095755;23;19923;-82
2022/09/14 00:13:42;;;;;;;;;;;20.60;88.60;;;;;;6096765;23;19921;-83
2022/09/14 00:16:11;;;;;;;;;;;20.60;88.70;;;;;;6120637;23;19924;-82
2022/09/14 00:18:38;;;;;;;;;;;20.60;88.60;;;;;;6120145;23;20004;-83
2022/09/14 00:21:06;;;;;;;;;;;20.60;89.20;;;;;;6120870;23;20258;-83
2022/09/14 00:23:36;;;;;;;;;;;20.50;90.90;;;;;;6120133;23;20390;-82
2022/09/14 00:26:04;;;;;;;;;;;20.50;90.80;;;;;;6120582;23;19973;-82
2022/09/14 00:28:36;;;;;;;;;;;20.50;90.70;;;;;;6120093;23;19917;-82
2022/09/14 00:31:03;;;;;;;;;;;20.40;90.60;;;;;;6120636;23;19932;-83
2022/09/14 00:33:30;;;;;;;;;;;20.40;90.60;;;;;;6119890;23;20331;-82
2022/09/14 00:36:02;;;;;;;;;;;20.40;90.50;;;;;;6120868;23;19917;-83
2022/09/14 00:38:29;;;;;;;;;;;20.40;90.70;;;;;;6120272;23;19987;-82
2022/09/14 00:40:57;;;;;;;;;;;20.40;90.70;;;;;;6121006;23;19917;-83
2022/09/14 00:43:23;;;;;;;;;;;20.40;90.50;;;;;;6120754;23;20230;-82
2022/09/14 00:45:51;;;;;;;;;;;20.40;90.50;;;;;;6095760;23;19924;-82
2022/09/14 00:48:18;;;;;;;;;;;20.40;90.30;;;;;;6097937;23;19921;-83
2022/09/14 00:50:45;;;;;;;;;;;20.50;90.30;;;;;;6120022;23;19917;-83
2022/09/14 00:53:12;;;;;;;;;;;20.50;90.20;;;;;;6120645;23;20265;-83
2022/09/14 00:55:38;;;;;;;;;;;20.50;90.80;;;;;;6119828;23;19917;-83
2022/09/14 00:58:05;;;;;;;;;;;20.50;90.20;;;;;;6120406;23;19917;-82
2022/09/14 01:00:32;;;;;;;;;;;20.50;89.80;;;;;;6120212;23;20273;-82
2022/09/14 01:03:00;;;;;;;;;;;20.50;89.30;;;;;;6120630;23;20366;-83
2022/09/14 01:05:50;;;;;;;;;;;20.50;89.00;;;;;;6120664;23;20004;-83
2022/09/14 01:08:37;;;;;;;;;;;20.50;88.50;;;;;;6085071;23;20001;-83
2022/09/14 01:11:22;;;;;;;;;;;20.50;88.40;;;;;;6095027;23;19980;-83
2022/09/14 01:14:12;;;;;;;;;;;20.50;88.20;;;;;;6096168;23;19989;-83
2022/09/14 01:16:49;;;;;;;;;;;20.60;88.20;;;;;;6084984;23;20335;-83
2022/09/14 01:19:23;;;;;;;;;;;20.50;87.80;;;;;;6121054;23;20038;-82
2022/09/14 01:21:53;;;;;;;;;;;20.50;87.40;;;;;;6095798;23;19917;-83
2022/09/14 01:24:20;;;;;;;;;;;20.50;87.00;;;;;;6119241;23;19986;-83
2022/09/14 01:27:05;;;;;;;;;;;20.50;88.20;;;;;;6096056;23;19921;-83
2022/09/14 01:29:33;;;;;;;;;;;20.50;87.50;;;;;;6095318;23;19923;-83
2022/09/14 01:32:06;;;;;;;;;;;20.50;88.20;;;;;;6120325;23;19923;-83
2022/09/14 01:34:37;;;;;;;;;;;20.50;89.00;;;;;;6095347;23;19921;-83
2022/09/14 01:37:11;;;;;;;;;;;20.40;90.00;;;;;;6120162;23;19925;-83
2022/09/14 01:39:43;;;;;;;;;;;20.20;91.10;;;;;;6119680;23;19925;-83
2022/09/14 01:42:11;;;;;;;;;;;20.10;91.90;;;;;;6095931;23;20246;-83
2022/09/14 01:44:41;;;;;;;;;;;20.00;92.50;;;;;;6119281;23;19918;-83
2022/09/14 01:47:11;;;;;;;;;;;19.90;92.90;;;;;;6120253;23;19944;-82
2022/09/14 01:49:40;;;;;;;;;;;19.90;92.60;;;;;;6119333;23;19948;-83
2022/09/14 01:52:13;;;;;;;;;;;19.90;92.50;;;;;;6120099;23;19925;-83
2022/09/14 01:54:45;;;;;;;;;;;19.90;93.20;;;;;;6119338;23;19917;-83
2022/09/14 01:57:14;;;;;;;;;;;19.80;93.30;;;;;;6120020;23;19928;-83
2022/09/14 01:59:42;;;;;;;;;;;19.90;93.10;;;;;;6118631;23;20259;-83
2022/09/14 02:02:11;;;;;;;;;;;19.80;92.60;;;;;;6119415;23;19965;-83
2022/09/14 02:05:00;;;;;;;;;;;19.90;92.20;;;;;;6118948;23;20219;-82
2022/09/14 02:07:26;;;;;;;;;;;19.90;92.50;;;;;;6118954;23;19931;-83
2022/09/14 02:09:54;;;;;;;;;;;19.90;92.70;;;;;;6119893;23;19936;-83
2022/09/14 02:12:21;;;;;;;;;;;19.90;92.30;;;;;;6118925;23;19952;-83
2022/09/14 02:14:49;;;;;;;;;;;20.00;92.50;;;;;;6095675;23;19940;-83
2022/09/14 02:17:16;;;;;;;;;;;19.90;92.50;;;;;;6096333;23;20326;-83
2022/09/14 02:19:45;;;;;;;;;;;20.00;91.70;;;;;;6118967;23;19917;-83
2022/09/14 02:22:12;;;;;;;;;;;20.00;91.60;;;;;;6119749;23;20401;-83
2022/09/14 02:24:39;;;;;;;;;;;20.10;91.70;;;;;;6119164;23;19991;-83
2022/09/14 02:27:06;;;;;;;;;;;20.10;91.60;;;;;;6119318;23;20007;-82
2022/09/14 02:29:33;;;;;;;;;;;20.10;91.20;;;;;;6117790;23;19973;-82
2022/09/14 02:32:08;;;;;;;;;;;20.10;91.40;;;;;;6119130;23;19917;-82
2022/09/14 02:34:38;;;;;;;;;;;20.10;91.00;;;;;;6118035;23;20385;-80
2022/09/14 02:37:19;;;;;;;;;;;20.20;91.00;;;;;;6096012;23;20254;-80
2022/09/14 02:40:09;;;;;;;;;;;20.20;91.30;;;;;;6118377;23;20004;-80
2022/09/14 02:42:36;;;;;;;;;;;20.20;91.80;;;;;;6118290;23;19984;-80
2022/09/14 02:45:21;;;;;;;;;;;20.10;92.20;;;;;;6095006;23;20301;-80
2022/09/14 02:48:03;;;;;;;;;;;20.10;92.10;;;;;;6093519;23;19956;-80
2022/09/14 02:50:40;;;;;;;;;;;20.10;92.50;;;;;;6118375;23;19918;-81
2022/09/14 02:53:11;;;;;;;;;;;20.00;92.80;;;;;;6094956;23;19987;-81
2022/09/14 02:55:40;;;;;;;;;;;20.00;92.40;;;;;;6118196;23;20364;-80
2022/09/14 02:58:11;;;;;;;;;;;20.00;92.80;;;;;;6118293;23;20302;-80
2022/09/14 03:00:39;;;;;;;;;;;20.00;92.90;;;;;;6092643;23;19921;-80
2022/09/14 03:03:07;;;;;;;;;;;20.00;92.90;;;;;;6093159;23;19984;-80
2022/09/14 03:05:34;;;;;;;;;;;20.00;92.50;;;;;;6116919;23;20000;-80
2022/09/14 03:08:02;;;;;;;;;;;20.00;92.50;;;;;;6117714;23;19917;-81
2022/09/14 03:10:30;;;;;;;;;;;20.10;91.90;;;;;;6117029;23;20193;-80
2022/09/14 03:12:57;;;;;;;;;;;20.10;91.80;;;;;;6094828;23;19925;-81
2022/09/14 03:15:25;;;;;;;;;;;20.10;91.90;;;;;;6117762;23;19924;-81
2022/09/14 03:17:51;;;;;;;;;;;20.10;92.10;;;;;;6117274;23;20250;-81
2022/09/14 03:20:19;;;;;;;;;;;20.00;91.90;;;;;;6094736;23;19933;-80
2022/09/14 03:22:46;;;;;;;;;;;20.10;91.50;;;;;;6094632;23;19921;-81
2022/09/14 03:25:13;;;;;;;;;;;20.10;91.20;;;;;;6118033;23;19945;-80
2022/09/14 03:27:40;;;;;;;;;;;20.10;91.00;;;;;;6117232;23;19939;-81
2022/09/14 03:30:07;;;;;;;;;;;20.10;91.30;;;;;;6117872;23;19933;-80
2022/09/14 03:32:34;;;;;;;;;;;20.10;91.00;;;;;;6117637;23;19923;-81
2022/09/14 03:35:01;;;;;;;;;;;20.10;91.00;;;;;;6117846;23;19955;-82
2022/09/14 03:37:27;;;;;;;;;;;20.10;91.20;;;;;;6117416;23;19964;-81
2022/09/14 03:39:54;;;;;;;;;;;20.10;91.20;;;;;;6118113;23;19995;-81
2022/09/14 03:42:21;;;;;;;;;;;20.00;91.10;;;;;;6117947;23;19924;-80
2022/09/14 03:44:48;;;;;;;;;;;20.00;91.30;;;;;;6092825;23;21058;-81
2022/09/14 03:47:14;;;;;;;;;;;20.00;91.40;;;;;;6117329;23;19939;-80
2022/09/14 03:49:41;;;;;;;;;;;20.00;91.60;;;;;;6117293;23;19956;-81
2022/09/14 03:52:08;;;;;;;;;;;20.00;91.90;;;;;;6095079;23;19921;-81
2022/09/14 03:54:34;;;;;;;;;;;19.90;91.90;;;;;;6117351;23;19917;-80
2022/09/14 03:57:01;;;;;;;;;;;19.80;92.80;;;;;;6093589;23;20533;-82
2022/09/14 03:59:28;;;;;;;;;;;19.60;93.00;;;;;;6118035;23;19921;-80
2022/09/14 04:01:55;;;;;;;;;;;19.70;92.70;;;;;;6117278;23;19992;-81
2022/09/14 04:04:22;;;;;;;;;;;19.60;92.50;;;;;;6117949;23;20338;-81
2022/09/14 04:06:49;;;;;;;;;;;19.60;92.60;;;;;;6094084;23;20344;-80
2022/09/14 04:09:18;;;;;;;;;;;19.60;92.90;;;;;;6118039;23;19917;-80
2022/09/14 04:11:45;;;;;;;;;;;19.50;93.10;;;;;;6116525;23;19917;-80
2022/09/14 04:14:12;;;;;;;;;;;19.50;93.20;;;;;;6094580;23;19921;-80
2022/09/14 04:16:39;;;;;;;;;;;19.50;93.00;;;;;;6116878;23;19996;-80
2022/09/14 04:19:06;;;;;;;;;;;19.50;92.80;;;;;;6117584;23;20288;-80
2022/09/14 04:21:33;;;;;;;;;;;19.40;92.70;;;;;;6116149;23;19941;-80
2022/09/14 04:24:00;;;;;;;;;;;19.40;92.90;;;;;;6093936;23;19924;-80
2022/09/14 04:26:41;;;;;;;;;;;19.40;93.00;;;;;;6114295;23;19954;-81
2022/09/14 04:29:09;;;;;;;;;;;19.30;92.90;;;;;;6118338;23;19921;-80
2022/09/14 04:31:36;;;;;;;;;;;19.30;92.70;;;;;;6117655;23;19940;-80
2022/09/14 04:34:03;;;;;;;;;;;19.30;92.70;;;;;;6094951;23;19921;-81
2022/09/14 04:36:29;;;;;;;;;;;19.30;93.20;;;;;;6118044;23;20352;-81
2022/09/14 04:38:58;;;;;;;;;;;19.20;93.20;;;;;;6117707;23;19988;-81
2022/09/14 04:41:25;;;;;;;;;;;19.20;93.10;;;;;;6118094;23;19944;-80
2022/09/14 04:43:53;;;;;;;;;;;19.10;94.00;;;;;;6117200;23;19992;-80
2022/09/14 04:46:21;;;;;;;;;;;19.10;93.50;;;;;;6118205;23;19917;-81
2022/09/14 04:48:48;;;;;;;;;;;19.10;93.30;;;;;;6117675;23;19963;-80
2022/09/14 04:51:25;;;;;;;;;;;19.10;93.60;;;;;;6118204;23;20326;-80
2022/09/14 04:53:53;;;;;;;;;;;19.00;93.60;;;;;;6117397;23;19997;-80
2022/09/14 04:56:21;;;;;;;;;;;19.00;93.70;;;;;;6117449;23;19941;-81
2022/09/14 04:58:49;;;;;;;;;;;19.00;93.50;;;;;;6117503;23;20429;-81
2022/09/14 05:01:19;;;;;;;;;;;19.00;93.60;;;;;;6096874;23;20234;-81
2022/09/14 05:03:46;;;;;;;;;;;18.90;93.60;;;;;;6116603;23;19992;-80
2022/09/14 05:06:14;;;;;;;;;;;19.00;93.60;;;;;;6119983;23;19921;-80
2022/09/14 05:08:41;;;;;;;;;;;19.00;93.50;;;;;;6119183;23;19987;-81
2022/09/14 05:11:08;;;;;;;;;;;19.00;94.00;;;;;;6120417;23;19943;-82
2022/09/14 05:13:35;;;;;;;;;;;19.00;93.80;;;;;;6118795;23;19917;-81
2022/09/14 05:16:14;;;;;;;;;;;19.00;93.70;;;;;;6119964;23;19921;-81
2022/09/14 05:18:42;;;;;;;;;;;19.00;93.70;;;;;;6096006;23;20317;-81
2022/09/14 05:21:11;;;;;;;;;;;19.00;94.80;;;;;;6118198;23;19924;-80
2022/09/14 05:23:38;;;;;;;;;;;19.00;94.50;;;;;;6119069;23;19921;-81
2022/09/14 05:26:05;;;;;;;;;;;18.90;94.30;;;;;;6117071;23;20355;-81
2022/09/14 05:28:32;;;;;;;;;;;19.00;94.30;;;;;;6118933;23;20037;-81
2022/09/14 05:31:02;;;;;;;;;;;18.90;95.20;;;;;;6119041;23;19924;-81
2022/09/14 05:33:29;;;;;;;;;;;18.90;94.70;;;;;;6096337;23;19924;-80
2022/09/14 05:35:59;;;;;;;;;;;18.90;94.30;;;;;;6118408;23;19929;-81
2022/09/14 05:38:27;;;;;;;;;;;18.90;94.20;;;;;;6118868;23;19995;-82
2022/09/14 05:40:54;;;;;;;;;;;18.90;94.10;;;;;;6118947;23;19988;-81
2022/09/14 05:43:21;;;;;;;;;;;18.90;94.00;;;;;;6119537;23;20328;-81
2022/09/14 05:45:48;;;;;;;;;;;18.90;93.90;;;;;;6118768;23;19921;-81
2022/09/14 05:48:15;;;;;;;;;;;18.80;94.50;;;;;;6119517;23;19921;-81
2022/09/14 05:50:42;;;;;;;;;;;18.90;94.70;;;;;;6118806;23;20389;-81
2022/09/14 05:53:09;;;;;;;;;;;18.80;94.60;;;;;;6119618;23;19917;-81
2022/09/14 05:55:36;;;;;;;;;;;18.80;94.80;;;;;;6120067;23;20290;-81
2022/09/14 05:58:03;;;;;;;;;;;18.80;94.70;;;;;;6095130;23;19921;-81
2022/09/14 06:00:30;;;;;;;;;;;18.80;94.80;;;;;;6119533;23;19991;-81
2022/09/14 06:02:57;;;;;;;;;;;18.80;94.60;;;;;;6119335;23;19921;-80
2022/09/14 06:05:24;;;;;;;;;;;18.80;95.00;;;;;;6119799;23;19917;-81
2022/09/14 06:07:51;;;;;;;;;;;18.90;96.10;;;;;;6119072;23;19968;-80
2022/09/14 06:10:19;;;;;;;;;;;18.90;95.90;;;;;;6119683;23;20022;-81
2022/09/14 06:12:46;;;;;;;;;;;18.90;95.70;;;;;;6118901;23;19947;-81
2022/09/14 06:15:12;;;;;;;;;;;19.00;95.50;;;;;;6119364;23;19992;-80
2022/09/14 06:17:39;;;;;;;;;;;19.00;95.30;;;;;;6118921;23;20000;-81
2022/09/14 06:20:06;;;;;;;;;;;19.10;95.70;;;;;;6119388;23;19992;-80
2022/09/14 06:22:33;;;;;;;;;;;19.20;95.50;;;;;;6093204;23;19917;-81
2022/09/14 06:25:00;;;;;;;;;;;19.20;95.40;;;;;;6118777;23;19924;-80
2022/09/14 06:27:26;;;;;;;;;;;19.20;95.40;;;;;;6119613;23;19921;-81
2022/09/14 06:29:53;;;;;;;;;;;19.30;95.00;;;;;;6094484;23;19949;-80
2022/09/14 06:32:22;;;;;;;;;;;19.40;94.70;;;;;;6119600;23;19917;-80
2022/09/14 06:34:48;;;;;;;;;;;19.50;94.60;;;;;;6118749;23;19948;-80
2022/09/14 06:37:15;;;;;;;;;;;19.60;94.40;;;;;;6119156;23;19940;-80
2022/09/14 06:39:42;;;;;;;;;;;19.70;94.40;;;;;;6094838;23;19972;-79
2022/09/14 06:42:09;;;;;;;;;;;19.80;94.10;;;;;;6119376;23;19921;-80
2022/09/14 06:44:35;;;;;;;;;;;19.90;94.60;;;;;;6119662;23;19918;-80
2022/09/14 06:47:02;;;;;;;;;;;19.80;95.00;;;;;;6118702;23;20312;-80
2022/09/14 06:49:29;;;;;;;;;;;19.90;94.80;;;;;;6119630;23;19992;-81
2022/09/14 06:51:56;;;;;;;;;;;19.80;95.00;;;;;;6118602;23;19984;-80
2022/09/14 06:54:24;;;;;;;;;;;19.80;94.90;;;;;;6119281;23;19991;-81
2022/09/14 06:56:51;;;;;;;;;;;19.90;94.60;;;;;;6118609;23;19917;-80
2022/09/14 06:59:18;;;;;;;;;;;19.90;94.40;;;;;;6119349;23;20334;-81
2022/09/14 07:01:45;;;;;;;;;;;20.00;94.10;;;;;;6118513;23;20342;-80
2022/09/14 07:04:13;;;;;;;;;;;20.10;93.90;;;;;;6119043;23;19928;-81
2022/09/14 07:06:42;;;;;;;;;;;20.10;93.60;;;;;;6119035;23;19917;-80
2022/09/14 07:09:09;;;;;;;;;;;20.20;93.30;;;;;;6094520;23;20281;-80
2022/09/14 07:11:35;;;;;;;;;;;20.30;93.10;;;;;;6119132;23;19917;-81
2022/09/14 07:14:02;;;;;;;;;;;20.30;93.10;;;;;;6118564;23;20302;-80
2022/09/14 07:16:30;;;;;;;;;;;20.40;92.80;;;;;;6119004;23;19944;-81
2022/09/14 07:18:58;;;;;;;;;;;20.40;92.70;;;;;;6118503;23;20262;-80
2022/09/14 07:21:25;;;;;;;;;;;20.40;92.50;;;;;;6095765;23;19940;-80
2022/09/14 07:23:52;;;;;;;;;;;20.50;93.00;;;;;;6118302;23;19921;-81
2022/09/14 07:26:20;;;;;;;;;;;20.40;93.20;;;;;;6119225;23;20381;-80
2022/09/14 07:28:48;;;;;;;;;;;20.40;93.40;;;;;;6118504;23;19921;-80
2022/09/14 07:31:18;;;;;;;;;;;20.50;93.30;;;;;;6096144;23;19924;-80
2022/09/14 07:33:45;;;;;;;;;;;20.50;93.10;;;;;;6094579;23;20397;-81
2022/09/14 07:36:12;;;;;;;;;;;20.50;92.80;;;;;;6094058;23;19996;-81
2022/09/14 07:38:39;;;;;;;;;;;20.60;93.10;;;;;;6119634;23;19999;-80
2022/09/14 07:41:19;;;;;;;;;;;20.60;93.10;;;;;;6116445;23;19921;-80
2022/09/14 07:43:50;;;;;;;;;;;20.60;93.00;;;;;;6118211;23;19988;-80
2022/09/14 07:46:17;;;;;;;;;;;20.70;93.10;;;;;;6118146;23;19921;-82
2022/09/14 07:48:44;;;;;;;;;;;20.70;93.10;;;;;;6118830;23;19921;-81
2022/09/14 07:51:10;;;;;;;;;;;20.70;93.20;;;;;;6094365;23;19995;-81
2022/09/14 07:53:39;;;;;;;;;;;20.80;93.30;;;;;;6096096;23;20274;-82
2022/09/14 07:56:09;;;;;;;;;;;20.80;93.30;;;;;;6117931;23;20323;-81
2022/09/14 07:58:37;;;;;;;;;;;20.80;93.50;;;;;;6118724;23;19956;-80
2022/09/14 08:01:06;;;;;;;;;;;20.80;93.80;;;;;;6117585;23;19917;-80
2022/09/14 08:03:35;;;;;;;;;;;20.80;93.70;;;;;;6118816;23;19917;-81
2022/09/14 08:06:03;;;;;;;;;;;20.90;93.70;;;;;;6118032;23;20283;-82
2022/09/14 08:08:30;;;;;;;;;;;20.80;93.70;;;;;;6119144;23;19928;-81
2022/09/14 08:11:10;;;;;;;;;;;20.90;93.50;;;;;;6116909;23;19927;-81
2022/09/14 08:13:38;;;;;;;;;;;20.90;93.30;;;;;;6118591;23;19962;-82
2022/09/14 08:16:08;;;;;;;;;;;20.90;93.40;;;;;;6117529;23;19997;-81
2022/09/14 08:18:35;;;;;;;;;;;20.90;93.20;;;;;;6118586;23;19924;-80
2022/09/14 08:21:06;;;;;;;;;;;21.00;93.50;;;;;;6117650;23;20342;-80
2022/09/14 08:23:33;;;;;;;;;;;21.00;93.70;;;;;;6095949;23;19972;-80
2022/09/14 08:26:07;;;;;;;;;;;21.10;93.70;;;;;;6117974;23;19917;-81
2022/09/14 08:28:35;;;;;;;;;;;21.10;93.20;;;;;;6118631;23;19924;-80
2022/09/14 08:31:02;;;;;;;;;;;21.10;93.40;;;;;;6117295;23;19985;-80
2022/09/14 08:33:30;;;;;;;;;;;21.10;93.20;;;;;;6094930;23;20000;-80
2022/09/14 08:35:56;;;;;;;;;;;21.20;92.80;;;;;;6119795;23;20369;-81
2022/09/14 08:38:24;;;;;;;;;;;21.20;92.50;;;;;;6119770;23;19972;-79
2022/09/14 08:40:51;;;;;;;;;;;21.20;92.40;;;;;;6119994;23;19955;-78
2022/09/14 08:43:20;;;;;;;;;;;21.10;92.90;;;;;;6095026;23;19917;-79
2022/09/14 08:45:47;;;;;;;;;;;21.00;93.30;;;;;;6119714;23;19921;-79
2022/09/14 08:48:19;;;;;;;;;;;21.00;93.70;;;;;;6118844;23;19936;-79
2022/09/14 08:50:45;;;;;;;;;;;21.00;93.70;;;;;;6097464;23;20249;-80
2022/09/14 08:53:12;;;;;;;;;;;21.00;94.00;;;;;;6119706;23;19952;-80
2022/09/14 08:55:48;;;;;;;;;;;21.00;93.70;;;;;;6119470;23;19959;-78
2022/09/14 08:58:33;;;;;;;;;;;21.00;93.70;;;;;;6118255;23;19964;-79
2022/09/14 09:01:21;;;;;;;;;;;21.10;93.30;;;;;;6095241;23;19943;-78
2022/09/14 09:03:54;;;;;;;;;;;21.10;93.10;;;;;;6095024;23;19949;-79
2022/09/14 09:06:25;;;;;;;;;;;21.20;93.00;;;;;;6094684;23;19925;-81
2022/09/14 09:08:55;;;;;;;;;;;21.30;92.80;;;;;;6120087;23;20287;-80
2022/09/14 09:11:23;;;;;;;;;;;21.40;92.60;;;;;;6094820;23;20305;-80
2022/09/14 09:13:50;;;;;;;;;;;21.50;92.30;;;;;;6119648;23;20249;-79
2022/09/14 09:16:20;;;;;;;;;;;21.60;92.10;;;;;;6118956;23;20256;-79
2022/09/14 09:18:49;;;;;;;;;;;21.70;91.40;;;;;;6119625;23;20323;-79
2022/09/14 09:21:18;;;;;;;;;;;21.80;90.80;;;;;;6118613;23;19917;-79
2022/09/14 09:23:45;;;;;;;;;;;22.00;90.40;;;;;;6119503;23;19966;-79
2022/09/14 09:26:18;;;;;;;;;;;22.10;89.50;;;;;;6117728;23;20008;-80
2022/09/14 09:28:49;;;;;;;;;;;22.10;87.40;;;;;;6119315;23;19940;-78
2022/09/14 09:31:17;;;;;;;;;;;22.20;84.80;;;;;;6118764;23;19927;-80
2022/09/14 09:33:45;;;;;;;;;;;22.30;84.60;;;;;;6119643;23;20343;-79
2022/09/14 09:36:13;;;;;;;;;;;22.30;81.80;;;;;;6118626;23;19921;-79
2022/09/14 09:38:40;;;;;;;;;;;22.30;83.10;;;;;;6095013;23;19917;-79
2022/09/14 09:41:12;;;;;;;;;;;22.40;83.20;;;;;;6118772;23;19973;-79
2022/09/14 09:43:59;;;;;;;;;;;22.40;82.20;;;;;;6119188;23;19961;-79
2022/09/14 09:46:27;;;;;;;;;;;22.40;79.50;;;;;;6094656;23;19918;-79
2022/09/14 09:48:54;;;;;;;;;;;22.50;80.20;;;;;;6119324;23;19925;-79
2022/09/14 09:51:30;;;;;;;;;;;22.50;80.20;;;;;;6118869;23;19991;-79
2022/09/14 09:54:15;;;;;;;;;;;22.60;80.30;;;;;;6118804;23;19920;-80
2022/09/14 09:56:58;;;;;;;;;;;22.80;79.00;;;;;;6119050;23;19921;-80
2022/09/14 09:59:35;;;;;;;;;;;22.90;78.60;;;;;;6094026;23;20008;-79
2022/09/14 10:02:19;;;;;;;;;;;22.90;75.40;;;;;;6119573;23;20298;-79
2022/09/14 10:05:17;;;;;;;;;;;23.00;76.20;;;;;;6119115;23;19968;-79
2022/09/14 10:08:00;;;;;;;;;;;23.10;76.50;;;;;;6118870;23;19917;-79
2022/09/14 10:10:38;;;;;;;;;;;23.10;75.30;;;;;;6118413;23;20298;-81
2022/09/14 10:13:14;;;;;;;;;;;23.20;75.50;;;;;;6094607;23;20254;-80
2022/09/14 10:15:42;;;;;;;;;;;23.40;75.40;;;;;;6117781;23;19988;-80
2022/09/14 10:18:12;;;;;;;;;;;23.40;75.10;;;;;;6119094;23;19929;-79
2022/09/14 10:20:41;;;;;;;;;;;23.40;74.90;;;;;;6093901;23;19917;-80
2022/09/14 10:23:18;;;;;;;;;;;23.40;74.50;;;;;;6119569;23;20246;-80
2022/09/14 10:25:47;;;;;;;;;;;23.30;74.60;;;;;;6093852;23;20331;-80
2022/09/14 10:28:27;;;;;;;;;;;23.40;75.90;;;;;;6119089;23;19936;-80
2022/09/14 10:31:14;;;;;;;;;;;23.40;73.70;;;;;;6118245;23;19917;-80
2022/09/14 10:33:41;;;;;;;;;;;23.40;75.00;;;;;;6085259;23;19917;-80
2022/09/14 10:36:17;;;;;;;;;;;23.40;75.70;;;;;;6118738;23;19917;-80
2022/09/14 10:38:44;;;;;;;;;;;23.50;76.10;;;;;;6094858;23;20301;-80
2022/09/14 10:41:30;;;;;;;;;;;23.40;76.20;;;;;;6093959;23;19924;-80
2022/09/14 10:43:57;;;;;;;;;;;23.60;77.80;;;;;;6093764;23;19921;-80
2022/09/14 10:46:28;;;;;;;;;;;23.70;74.70;;;;;;6094205;23;20345;-81
2022/09/14 10:49:19;;;;;;;;;;;23.70;75.30;;;;;;6117125;23;19924;-79
2022/09/14 10:51:59;;;;;;;;;;;23.80;74.80;;;;;;6117141;23;19918;-81
2022/09/14 10:54:25;;;;;;;;;;;23.90;73.70;;;;;;6118635;23;19925;-79
2022/09/14 10:56:58;;;;;;;;;;;23.90;74.60;;;;;;6094256;23;19918;-81
2022/09/14 10:59:43;;;;;;;;;;;24.10;74.40;;;;;;6126546;23;19952;-81
2022/09/14 11:02:16;;;;;;;;;;;24.10;71.30;;;;;;6101268;23;19952;-81
2022/09/14 11:04:58;;;;;;;;;;;24.10;71.70;;;;;;6103116;23;19917;-81
2022/09/14 11:07:44;;;;;;;;;;;24.30;71.20;;;;;;6100908;23;19917;-81
2022/09/14 11:10:10;;;;;;;;;;;24.50;70.60;;;;;;6101156;23;19967;-81
2022/09/14 11:12:40;;;;;;;;;;;24.60;69.40;;;;;;6104365;23;19921;-81
2022/09/14 11:15:17;;;;;;;;;;;24.80;69.10;;;;;;6106721;23;19921;-81
2022/09/14 11:17:50;;;;;;;;;;;25.00;69.20;;;;;;6132302;23;19957;-81
2022/09/14 11:20:25;;;;;;;;;;;25.10;69.30;;;;;;6107033;23;19991;-81
2022/09/14 11:22:59;;;;;;;;;;;25.20;69.50;;;;;;6131588;23;20360;-81
2022/09/14 11:25:32;;;;;;;;;;;24.90;68.70;;;;;;6107825;23;19924;-81
2022/09/14 11:28:10;;;;;;;;;;;25.30;68.90;;;;;;6109833;23;19949;-81
2022/09/14 11:30:57;;;;;;;;;;;25.00;68.10;;;;;;6130924;23;19921;-81
2022/09/14 11:33:27;;;;;;;;;;;25.20;68.10;;;;;;6105300;23;19917;-80
2022/09/14 11:35:59;;;;;;;;;;;25.50;66.70;;;;;;6129958;23;19921;-80
2022/09/14 11:38:33;;;;;;;;;;;25.70;66.70;;;;;;6130684;23;20247;-81
2022/09/14 11:41:06;;;;;;;;;;;25.70;65.30;;;;;;6131404;23;19979;-81
2022/09/14 11:43:42;;;;;;;;;;;25.40;64.70;;;;;;6109051;23;19956;-81
2022/09/14 11:46:11;;;;;;;;;;;25.50;64.80;;;;;;6110297;23;19917;-81
2022/09/14 11:48:47;;;;;;;;;;;25.70;66.00;;;;;;6132236;23;19921;-81
2022/09/14 11:51:16;;;;;;;;;;;25.80;66.10;;;;;;6108463;23;19924;-81
2022/09/14 11:53:43;;;;;;;;;;;25.80;64.70;;;;;;6136139;23;19928;-81
2022/09/14 11:56:32;;;;;;;;;;;26.00;64.00;;;;;;6143560;23;19921;-81
2022/09/14 11:59:00;;;;;;;;;;;26.00;64.10;;;;;;6142987;23;19901;-81
2022/09/14 12:01:28;;;;;;;;;;;26.00;64.90;;;;;;6143744;23;19940;-81
2022/09/14 12:03:55;;;;;;;;;;;25.90;64.60;;;;;;6143582;23;19901;-81
2022/09/14 12:06:28;;;;;;;;;;;25.90;64.40;;;;;;6119692;23;20431;-81
2022/09/14 12:09:15;;;;;;;;;;;25.70;63.60;;;;;;6122318;23;19976;-80
2022/09/14 12:11:47;;;;;;;;;;;26.10;63.70;;;;;;6121790;23;19927;-80
2022/09/14 12:14:23;;;;;;;;;;;26.10;63.70;;;;;;6147262;23;19916;-80
2022/09/14 12:17:08;;;;;;;;;;;26.00;63.00;;;;;;6122053;23;19925;-80
2022/09/14 12:19:58;;;;;;;;;;;26.20;63.50;;;;;;6122406;23;20004;-81
2022/09/14 12:22:28;;;;;;;;;;;26.50;63.20;;;;;;6147666;23;19908;-81
2022/09/14 12:25:03;;;;;;;;;;;26.70;61.90;;;;;;6121633;23;19941;-81
2022/09/14 12:27:34;;;;;;;0.37;0.00;;;26.70;61.50;;;;;;6146362;23;19902;-81
2022/09/14 12:30:01;;;;;;;0.00;0.00;;;26.90;60.90;;;;;;6145980;23;20242;-81
2022/09/14 12:32:42;;;;;;;0.00;0.00;;;27.00;61.30;;;;;;6146204;23;20018;-81
2022/09/14 12:35:37;;;;;;;0.00;0.00;;;26.80;61.60;;;;;;6120857;23;20321;-81
2022/09/14 12:38:23;;;;;;;;;;;26.40;61.80;;;;;;6121537;23;20029;-81
2022/09/14 12:40:50;;;;;;;;;;;26.60;62.50;;;;;;6121497;23;19924;-81
2022/09/14 12:43:32;;;;;;;;;;;26.80;62.20;;;;;;6144673;23;19917;-81
2022/09/14 12:46:03;;;;;;;;;;;26.90;62.10;;;;;;6119323;23;19901;-81
2022/09/14 12:48:49;;;;;;;;;;;27.10;60.60;;;;;;6147544;23;19941;-81
2022/09/14 12:51:25;;;;;;;;;;;27.40;60.20;;;;;;6122268;23;19942;-80
2022/09/14 12:54:07;;;;;;;;;;;27.30;60.10;;;;;;6124016;23;19905;-81
2022/09/14 12:56:37;;;;;;;;;;;26.80;59.60;;;;;;6122226;23;19901;-81
2022/09/14 12:59:08;;;;;;;;;;;26.80;60.30;;;;;;6123400;23;19924;-81
2022/09/14 13:01:58;;;;;;;;;;;26.90;61.20;;;;;;6122276;23;19919;-81
2022/09/14 13:04:27;;;;;;;;;;;27.20;59.80;;;;;;6136147;23;19924;-81
2022/09/14 13:06:55;;;;;;;;;;;27.40;58.10;;;;;;6144820;23;19917;-83
2022/09/14 13:09:23;;;;;;;;;;;27.30;58.00;;;;;;6143756;23;19905;-81
2022/09/14 13:11:55;;;;;;;;;;;27.40;59.80;;;;;;6144830;23;19908;-81
2022/09/14 13:14:23;;;;;;;;;;;27.70;58.50;;;;;;6146290;23;19925;-82
2022/09/14 13:16:51;;;;;;;;;;;28.00;58.20;;;;;;6146752;23;20327;-81
2022/09/14 13:19:19;;;;;;;;;;;28.10;58.30;;;;;;6145051;23;19944;-81
2022/09/14 13:21:47;;;;;;;;;;;27.60;59.50;;;;;;6145719;23;19908;-80
2022/09/14 13:24:26;;;;;;;;;;;27.80;58.80;;;;;;6143492;23;19901;-82
2022/09/14 13:26:58;;;;;;;;;;;27.90;58.30;;;;;;6120566;23;19925;-82
2022/09/14 13:29:25;;;;;;;;;;;27.70;57.80;;;;;;6119491;23;19928;-82
2022/09/14 13:31:53;;;;;;;;;;;27.20;58.10;;;;;;6143730;23;19912;-82
2022/09/14 13:34:22;;;;;;;;;;;27.00;59.30;;;;;;6143617;23;19943;-81
2022/09/14 13:36:48;;;;;;;;;;;27.10;58.90;;;;;;6143660;23;20229;-82
2022/09/14 13:39:22;;;;;;;;;;;27.10;58.70;;;;;;6143331;23;19968;-82
2022/09/14 13:41:49;;;;;;;;;;;27.00;58.30;;;;;;6144917;23;19905;-82
2022/09/14 13:44:16;;;;;;;;;;;26.80;58.00;;;;;;6143551;23;19905;-82
2022/09/14 13:46:43;;;;;;;;;;;26.90;59.20;;;;;;6121379;23;19950;-82
2022/09/14 13:49:11;;;;;;;;;;;27.10;58.40;;;;;;6142897;23;19917;-82
2022/09/14 13:51:38;;;;;;;;;;;27.40;56.90;;;;;;6119465;23;19902;-82
2022/09/14 13:54:27;;;;;;;;;;;27.50;55.90;;;;;;6143258;23;19917;-81
2022/09/14 13:57:11;;;;;;;;;;;27.50;57.00;;;;;;6119557;23;20369;-83
2022/09/14 13:59:58;;;;;;;;;;;27.40;57.10;;;;;;6143943;23;19947;-82
2022/09/14 14:02:25;;;;;;;;;;;27.30;56.50;;;;;;6118380;23;20285;-82
2022/09/14 14:04:52;;;;;;;;;;;27.10;57.20;;;;;;6122037;23;19906;-82
2022/09/14 14:07:26;;;;;;;;;;;27.10;56.90;;;;;;6143944;23;19917;-82
2022/09/14 14:09:54;;;;;;;;;;;26.80;58.10;;;;;;6145013;23;19945;-82
2022/09/14 14:12:41;;;;;;;;;;;26.40;59.60;;;;;;6141938;23;19945;-82
2022/09/14 14:15:11;;;;;;;;;;;26.30;60.50;;;;;;6144575;23;19925;-82
2022/09/14 14:17:38;;;;;;;;;;;26.50;61.00;;;;;;6119809;23;19928;-82
2022/09/14 14:20:24;;;;;;;;;;;26.40;60.30;;;;;;6144563;23;19917;-82
2022/09/14 14:23:09;;;;;;;;;;;26.50;60.10;;;;;;6119352;23;20495;-82
2022/09/14 14:25:47;;;;;;;;;;;26.60;59.60;;;;;;6119187;23;19924;-82
2022/09/14 14:28:21;;;;;;;;;;;26.30;59.70;;;;;;6143095;23;19940;-82
2022/09/14 14:30:47;;;;;;;;;;;26.40;59.90;;;;;;6142426;23;19921;-82
2022/09/14 14:33:17;;;;;;;;;;;26.40;60.50;;;;;;6143233;23;19928;-82
2022/09/14 14:35:45;;;;;;;;;;;26.20;60.40;;;;;;6143399;23;19917;-81
2022/09/14 14:38:12;;;;;;;;;;;26.10;61.40;;;;;;6143301;23;19925;-82